Time;durP1;ratioP1;P1;durP2;ratioP2;P2;SDS_P1;SDS_P2;PMS_P1;PMS_P2;Temp;Humidity;BMP_temperature;BMP_pressure;BME280_temperature;BME280_humidity;BME280_pressure;Samples;Min_cycle;Max_cycle;Signal;HPM_P1;HPM_P2
2021/04/27 00:00:58;;;;;;;7.13;5.70;;;;;;;;;;2105958;28;20602;-58
2021/04/27 00:02:02;;;;;;;6.43;5.80;;;;;;;;;;2107674;28;20194;-57
2021/04/27 00:03:04;;;;;;;8.40;5.33;;;;;;;;;;2106478;28;20162;-56
2021/04/27 00:04:04;;;;;;;6.57;5.53;;;;;;;;;;2105623;28;20188;-59
2021/04/27 00:05:05;;;;;;;7.23;6.10;;;;;;;;;;2104203;28;20205;-58
2021/04/27 00:06:05;;;;;;;6.33;5.73;;;;;;;;;;2101031;28;20195;-54
2021/04/27 00:07:06;;;;;;;6.93;5.80;;;;;;;;;;2105913;28;20170;-57
2021/04/27 00:08:06;;;;;;;6.40;5.80;;;;;;;;;;2105888;28;20601;-59
2021/04/27 00:09:07;;;;;;;6.20;5.67;;;;;;;;;;2097720;28;20256;-56
2021/04/27 00:10:08;;;;;;;6.80;6.20;;;;;;;;;;2099924;28;20183;-57
2021/04/27 00:11:08;;;;;;;5.67;5.20;;;;;;;;;;2105268;28;20178;-59
2021/04/27 00:12:09;;;;;;;6.93;6.33;;;;;;;;;;2098168;28;20572;-58
2021/04/27 00:13:09;;;;;;;5.90;5.50;;;;;;;;;;2098127;28;20234;-60
2021/04/27 00:14:10;;;;;;;6.30;5.80;;;;;;;;;;2106471;28;20265;-56
2021/04/27 00:15:15;;;;;;;6.07;5.57;;;;;;;;;;2106300;28;20329;-59
2021/04/27 00:16:15;;;;;;;6.87;5.70;;;;;;;;;;2106143;28;20178;-59
2021/04/27 00:17:15;;;;;;;6.87;5.67;;;;;;;;;;2106602;28;20166;-59
2021/04/27 00:18:16;;;;;;;6.17;5.67;;;;;;;;;;2105811;28;20201;-58
2021/04/27 00:19:16;;;;;;;6.53;5.33;;;;;;;;;;2106136;28;20174;-59
2021/04/27 00:20:17;;;;;;;6.33;5.70;;;;;;;;;;2103363;28;20190;-56
2021/04/27 00:21:17;;;;;;;6.70;5.67;;;;;;;;;;2106621;28;20178;-58
2021/04/27 00:22:17;;;;;;;6.67;5.83;;;;;;;;;;2106162;28;20606;-59
2021/04/27 00:23:17;;;;;;;7.37;6.00;;;;;;;;;;2105706;28;20273;-59
2021/04/27 00:24:18;;;;;;;6.73;6.03;;;;;;;;;;2102769;28;20185;-57
2021/04/27 00:25:18;;;;;;;7.13;5.83;;;;;;;;;;2107098;28;20190;-58
2021/04/27 00:26:19;;;;;;;11.07;5.97;;;;;;;;;;2101568;28;20210;-57
2021/04/27 00:27:19;;;;;;;7.30;6.70;;;;;;;;;;2098911;28;20179;-59
2021/04/27 00:28:19;;;;;;;8.57;6.17;;;;;;;;;;2104012;28;20202;-59
2021/04/27 00:29:20;;;;;;;5.87;5.37;;;;;;;;;;2105494;28;20285;-60
2021/04/27 00:30:21;;;;;;;6.80;6.20;;;;;;;;;;2105861;28;20664;-60
2021/04/27 00:31:21;;;;;;;7.10;6.00;;;;;;;;;;2109269;28;20189;-61
2021/04/27 00:32:21;;;;;;;7.07;6.30;;;;;;;;;;2089739;28;20172;-58
2021/04/27 00:33:21;;;;;;;6.57;5.80;;;;;;;;;;2098014;28;20282;-57
2021/04/27 00:34:22;;;;;;;7.50;6.90;;;;;;;;;;2102739;28;20307;-55
2021/04/27 00:35:22;;;;;;;6.60;6.10;;;;;;;;;;2102434;28;20171;-56
2021/04/27 00:36:23;;;;;;;7.07;6.40;;;;;;;;;;2098872;28;20211;-54
2021/04/27 00:37:23;;;;;;;6.73;5.90;;;;;;;;;;2099094;28;20182;-59
2021/04/27 00:38:23;;;;;;;6.73;6.13;;;;;;;;;;2106631;28;20258;-57
2021/04/27 00:39:23;;;;;;;6.73;6.03;;;;;;;;;;2103429;28;20225;-59
2021/04/27 00:40:26;;;;;;;6.80;6.17;;;;;;;;;;2106396;28;20677;-58
2021/04/27 00:41:26;;;;;;;7.17;6.07;;;;;;;;;;2106282;28;20182;-57
2021/04/27 00:42:33;;;;;;;7.30;6.70;;;;;;;;;;2106562;28;20175;-59
2021/04/27 00:43:34;;;;;;;8.00;6.30;;;;;;;;;;2103159;28;20218;-60
2021/04/27 00:44:34;;;;;;;6.70;6.00;;;;;;;;;;2104724;28;20186;-58
2021/04/27 00:45:34;;;;;;;6.87;6.13;;;;;;;;;;2103039;28;20183;-57
2021/04/27 00:46:35;;;;;;;12.97;6.33;;;;;;;;;;2105332;28;20334;-57
2021/04/27 00:47:36;;;;;;;7.43;6.67;;;;;;;;;;2102503;28;20709;-59
2021/04/27 00:48:36;;;;;;;6.23;5.73;;;;;;;;;;2104376;28;20558;-58
2021/04/27 00:49:36;;;;;;;6.40;5.80;;;;;;;;;;2105050;28;20639;-61
2021/04/27 00:50:37;;;;;;;6.70;6.10;;;;;;;;;;2106483;28;20170;-55
2021/04/27 00:51:38;;;;;;;7.97;6.90;;;;;;;;;;2104738;28;20248;-60
2021/04/27 00:52:39;;;;;;;6.37;5.70;;;;;;;;;;2107101;28;20174;-56
2021/04/27 00:53:39;;;;;;;6.73;6.17;;;;;;;;;;2105307;28;20689;-56
2021/04/27 00:54:39;;;;;;;7.07;6.07;;;;;;;;;;2099757;28;20636;-56
2021/04/27 00:55:39;;;;;;;6.90;6.30;;;;;;;;;;2097796;28;20254;-56
2021/04/27 00:56:40;;;;;;;6.37;5.87;;;;;;;;;;2096871;28;20245;-58
2021/04/27 00:57:40;;;;;;;7.50;6.80;;;;;;;;;;2105287;28;20184;-57
2021/04/27 00:58:41;;;;;;;8.03;7.23;;;;;;;;;;2107376;28;20163;-58
2021/04/27 00:59:41;;;;;;;8.80;7.60;;;;;;;;;;2104337;28;20178;-57
2021/04/27 01:00:42;;;;;;;8.00;7.20;;;;;;;;;;2105250;28;20175;-59
2021/04/27 01:01:43;;;;;;;16.63;12.53;;;;;;;;;;2106335;28;20181;-58
2021/04/27 01:02:44;;;;;;;12.77;11.37;;;;;;;;;;2105333;28;20521;-60
2021/04/27 01:03:44;;;;;;;9.30;7.13;;;;;;;;;;2106129;28;20201;-56
2021/04/27 01:04:44;;;;;;;8.50;6.90;;;;;;;;;;2104437;28;20194;-58
2021/04/27 01:05:45;;;;;;;8.13;6.90;;;;;;;;;;2104871;28;20197;-58
2021/04/27 01:06:48;;;;;;;8.03;6.90;;;;;;;;;;2105384;28;20170;-57
2021/04/27 01:08:01;;;;;;;8.63;6.37;;;;;;;;;;2106826;28;20205;-55
2021/04/27 01:09:05;;;;;;;7.27;6.70;;;;;;;;;;2101815;28;20638;-56
2021/04/27 01:10:06;;;;;;;7.37;6.67;;;;;;;;;;2097764;28;20228;-57
2021/04/27 01:11:22;;;;;;;7.50;6.70;;;;;;;;;;2105803;28;20598;-54
2021/04/27 01:12:31;;;;;;;9.40;7.00;;;;;;;;;;2105522;28;20606;-59
2021/04/27 01:13:34;;;;;;;7.20;6.50;;;;;;;;;;2095341;28;20199;-60
2021/04/27 01:14:38;;;;;;;7.03;6.40;;;;;;;;;;2097792;28;20603;-55
2021/04/27 01:15:41;;;;;;;6.90;6.20;;;;;;;;;;2097893;28;20250;-56
2021/04/27 01:16:46;;;;;;;7.23;6.63;;;;;;;;;;2105664;28;20173;-61
2021/04/27 01:17:50;;;;;;;7.40;6.67;;;;;;;;;;2105367;28;20464;-59
2021/04/27 01:18:51;;;;;;;8.83;6.70;;;;;;;;;;2099072;28;20624;-56
2021/04/27 01:20:06;;;;;;;10.70;7.30;;;;;;;;;;2106565;28;20432;-55
2021/04/27 01:21:21;;;;;;;8.23;6.90;;;;;;;;;;2103310;28;20175;-54
2021/04/27 01:22:30;;;;;;;7.20;6.50;;;;;;;;;;2098801;28;20254;-56
2021/04/27 01:23:49;;;;;;;6.80;6.20;;;;;;;;;;2098217;28;20300;-55
2021/04/27 01:24:54;;;;;;;7.27;6.53;;;;;;;;;;2105104;28;20190;-56
2021/04/27 01:25:56;;;;;;;7.67;6.87;;;;;;;;;;2110332;28;20204;-61
2021/04/27 01:26:58;;;;;;;8.03;7.23;;;;;;;;;;2109035;28;20503;-58
2021/04/27 01:27:58;;;;;;;7.50;6.70;;;;;;;;;;2102959;28;20171;-59
2021/04/27 01:28:59;;;;;;;6.80;6.20;;;;;;;;;;2099343;28;20197;-61
2021/04/27 01:30:01;;;;;;;8.90;7.07;;;;;;;;;;2102165;28;20175;-61
2021/04/27 01:31:02;;;;;;;7.73;7.00;;;;;;;;;;2109911;28;20225;-59
2021/04/27 01:32:04;;;;;;;7.80;7.00;;;;;;;;;;2100240;28;20546;-57
2021/04/27 01:33:09;;;;;;;7.83;7.10;;;;;;;;;;2097886;28;20179;-59
2021/04/27 01:34:11;;;;;;;7.60;6.73;;;;;;;;;;2107116;28;20253;-60
2021/04/27 01:35:12;;;;;;;7.37;6.77;;;;;;;;;;2105263;28;20170;-57
2021/04/27 01:36:35;;;;;;;7.27;6.53;;;;;;;;;;2103925;28;20175;-59
2021/04/27 01:37:36;;;;;;;7.20;6.70;;;;;;;;;;2105431;28;20198;-55
2021/04/27 01:38:37;;;;;;;6.77;6.23;;;;;;;;;;2089261;28;20254;-55
2021/04/27 01:39:37;;;;;;;7.37;6.77;;;;;;;;;;2089223;28;20171;-58
2021/04/27 01:40:38;;;;;;;9.40;6.87;;;;;;;;;;2096960;28;20574;-56
2021/04/27 01:41:39;;;;;;;7.87;7.17;;;;;;;;;;2106036;28;20165;-55
2021/04/27 01:42:39;;;;;;;8.87;6.43;;;;;;;;;;2105304;28;20165;-55
2021/04/27 01:43:39;;;;;;;7.67;6.97;;;;;;;;;;2106065;28;20565;-55
2021/04/27 01:44:42;;;;;;;7.50;6.80;;;;;;;;;;2104596;28;20181;-55
2021/04/27 01:45:42;;;;;;;7.33;6.77;;;;;;;;;;2105329;28;20166;-56
2021/04/27 01:46:43;;;;;;;7.80;7.20;;;;;;;;;;2104989;28;20560;-53
2021/04/27 01:47:43;;;;;;;10.17;7.73;;;;;;;;;;2098310;28;20295;-57
2021/04/27 01:48:44;;;;;;;8.23;6.73;;;;;;;;;;2099346;28;20671;-58
2021/04/27 01:49:48;;;;;;;8.37;7.57;;;;;;;;;;2097532;28;20631;-58
2021/04/27 01:51:10;;;;;;;8.97;8.07;;;;;;;;;;2099463;28;20407;-58
2021/04/27 01:52:29;;;;;;;9.20;7.70;;;;;;;;;;2100958;28;20767;-58
2021/04/27 01:53:33;;;;;;;10.13;7.13;;;;;;;;;;2093740;28;20581;-58
2021/04/27 01:54:35;;;;;;;7.80;7.20;;;;;;;;;;2089466;28;20675;-54
2021/04/27 01:55:35;;;;;;;7.40;6.73;;;;;;;;;;2097438;28;20388;-54
2021/04/27 01:56:36;;;;;;;8.97;7.70;;;;;;;;;;2095972;28;20217;-55
2021/04/27 01:57:37;;;;;;;7.57;6.80;;;;;;;;;;2091479;28;20186;-57
2021/04/27 01:58:37;;;;;;;7.30;6.60;;;;;;;;;;2103963;28;20174;-57
2021/04/27 01:59:38;;;;;;;7.10;6.50;;;;;;;;;;2106533;28;20223;-58
2021/04/27 02:00:44;;;;;;;7.87;7.17;;;;;;;;;;2104989;28;20316;-60
2021/04/27 02:01:46;;;;;;;7.80;7.10;;;;;;;;;;2096293;28;20862;-59
2021/04/27 02:02:46;;;;;;;8.30;7.50;;;;;;;;;;2092403;28;20175;-57
2021/04/27 02:04:05;;;;;;;7.57;6.90;;;;;;;;;;2097908;28;20422;-59
2021/04/27 02:05:14;;;;;;;10.00;7.13;;;;;;;;;;2100753;28;20178;-55
2021/04/27 02:06:44;;;;;;;7.80;7.10;;;;;;;;;;2101336;28;20179;-57
2021/04/27 02:07:45;;;;;;;7.37;6.77;;;;;;;;;;2104669;28;20162;-57
2021/04/27 02:08:51;;;;;;;8.47;6.77;;;;;;;;;;2105078;28;20261;-55
2021/04/27 02:09:51;;;;;;;8.40;7.50;;;;;;;;;;2105391;28;20189;-56
2021/04/27 02:11:02;;;;;;;11.30;7.10;;;;;;;;;;2105552;28;20167;-57
2021/04/27 02:12:02;;;;;;;8.57;6.67;;;;;;;;;;2096580;28;20167;-54
2021/04/27 02:13:13;;;;;;;8.07;7.27;;;;;;;;;;2095158;28;20171;-57
2021/04/27 02:14:20;;;;;;;7.60;6.93;;;;;;;;;;2104947;28;20162;-55
2021/04/27 02:15:21;;;;;;;10.60;7.57;;;;;;;;;;2105683;28;20277;-59
2021/04/27 02:16:24;;;;;;;8.13;7.37;;;;;;;;;;2097210;28;20266;-54
2021/04/27 02:17:31;;;;;;;6.90;6.40;;;;;;;;;;2096649;28;20171;-53
2021/04/27 02:18:53;;;;;;;10.10;7.07;;;;;;;;;;2098309;28;20175;-56
2021/04/27 02:19:55;;;;;;;8.27;7.57;;;;;;;;;;2099757;28;20166;-60
2021/04/27 02:21:25;;;;;;;7.80;7.10;;;;;;;;;;2098540;28;20186;-54
2021/04/27 02:22:47;;;;;;;8.77;7.90;;;;;;;;;;2104754;28;20564;-55
2021/04/27 02:24:02;;;;;;;8.87;7.97;;;;;;;;;;2102831;28;20268;-56
2021/04/27 02:25:06;;;;;;;7.80;7.10;;;;;;;;;;2105550;28;20257;-53
2021/04/27 02:26:06;;;;;;;8.30;7.07;;;;;;;;;;2105285;28;20178;-54
2021/04/27 02:27:16;;;;;;;8.03;7.33;;;;;;;;;;2104888;28;20778;-58
2021/04/27 02:28:18;;;;;;;9.00;8.13;;;;;;;;;;2096587;28;20196;-60
2021/04/27 02:29:19;;;;;;;9.17;7.77;;;;;;;;;;2100370;28;20695;-55
2021/04/27 02:30:20;;;;;;;9.47;8.23;;;;;;;;;;2104932;28;20166;-55
2021/04/27 02:31:21;;;;;;;9.20;7.93;;;;;;;;;;2105817;28;20278;-55
2021/04/27 02:32:22;;;;;;;8.50;7.63;;;;;;;;;;2104218;28;20684;-57
2021/04/27 02:33:24;;;;;;;8.53;7.73;;;;;;;;;;2096839;28;20197;-56
2021/04/27 02:34:25;;;;;;;8.87;8.07;;;;;;;;;;2101881;28;20685;-58
2021/04/27 02:35:27;;;;;;;10.57;7.73;;;;;;;;;;2102591;28;20180;-58
2021/04/27 02:36:31;;;;;;;9.13;7.17;;;;;;;;;;2096361;28;20229;-58
2021/04/27 02:37:36;;;;;;;8.13;7.33;;;;;;;;;;2095952;28;20166;-54
2021/04/27 02:38:44;;;;;;;7.97;7.30;;;;;;;;;;2098183;28;20162;-60
2021/04/27 02:39:44;;;;;;;8.73;7.83;;;;;;;;;;2097312;28;20963;-60
2021/04/27 02:40:45;;;;;;;8.23;7.53;;;;;;;;;;2097366;28;20167;-57
2021/04/27 02:41:46;;;;;;;7.87;7.10;;;;;;;;;;2105388;28;20162;-57
2021/04/27 02:43:06;;;;;;;7.47;6.73;;;;;;;;;;2103476;28;20186;-57
2021/04/27 02:44:13;;;;;;;7.13;6.53;;;;;;;;;;2102449;28;20185;-58
2021/04/27 02:45:15;;;;;;;7.40;6.70;;;;;;;;;;2101157;28;20166;-59
2021/04/27 02:46:34;;;;;;;9.07;6.60;;;;;;;;;;2099749;28;20623;-59
2021/04/27 02:47:37;;;;;;;8.07;7.27;;;;;;;;;;2106546;28;20231;-55
2021/04/27 02:48:39;;;;;;;7.40;6.67;;;;;;;;;;2098139;28;20403;-57
2021/04/27 02:49:46;;;;;;;7.60;6.80;;;;;;;;;;2105744;28;20218;-54
2021/04/27 02:50:52;;;;;;;7.83;7.03;;;;;;;;;;2107328;28;20613;-59
2021/04/27 02:51:52;;;;;;;8.27;6.97;;;;;;;;;;2106993;28;20415;-61
2021/04/27 02:52:55;;;;;;;8.37;7.50;;;;;;;;;;2098774;28;20225;-59
2021/04/27 02:53:57;;;;;;;8.63;7.40;;;;;;;;;;2098095;28;20170;-59
2021/04/27 02:54:58;;;;;;;8.97;7.53;;;;;;;;;;2098461;28;20596;-58
2021/04/27 02:56:00;;;;;;;8.70;7.30;;;;;;;;;;2099107;28;20261;-58
2021/04/27 02:57:01;;;;;;;8.30;7.50;;;;;;;;;;2107049;28;20169;-59
2021/04/27 02:58:11;;;;;;;10.40;7.63;;;;;;;;;;2107023;28;20194;-58
2021/04/27 02:59:14;;;;;;;7.80;6.73;;;;;;;;;;2099316;28;20178;-56
2021/04/27 03:00:16;;;;;;;7.00;6.33;;;;;;;;;;2102792;28;20193;-60
2021/04/27 03:01:21;;;;;;;9.87;6.67;;;;;;;;;;2107848;28;20177;-58
2021/04/27 03:02:21;;;;;;;7.83;7.03;;;;;;;;;;2109241;28;20181;-58
2021/04/27 03:03:22;;;;;;;6.90;6.37;;;;;;;;;;2107628;28;20182;-59
2021/04/27 03:04:22;;;;;;;8.23;7.40;;;;;;;;;;2105462;28;20213;-60
2021/04/27 03:05:43;;;;;;;7.53;6.97;;;;;;;;;;2105550;28;20162;-52
2021/04/27 03:06:44;;;;;;;6.67;5.97;;;;;;;;;;2107266;28;20645;-56
2021/04/27 03:07:47;;;;;;;7.00;6.30;;;;;;;;;;2106179;28;20692;-57
2021/04/27 03:08:51;;;;;;;7.03;6.43;;;;;;;;;;2090706;28;20648;-59
2021/04/27 03:09:52;;;;;;;8.63;6.87;;;;;;;;;;2096948;28;20257;-60
2021/04/27 03:10:52;;;;;;;7.10;6.50;;;;;;;;;;2107880;28;20235;-57
2021/04/27 03:11:53;;;;;;;7.17;6.47;;;;;;;;;;2107194;28;20535;-58
2021/04/27 03:12:54;;;;;;;7.30;6.70;;;;;;;;;;2104323;28;20171;-59
2021/04/27 03:13:54;;;;;;;6.63;6.10;;;;;;;;;;2106324;28;20228;-57
2021/04/27 03:14:55;;;;;;;6.87;6.27;;;;;;;;;;2091176;28;20180;-57
2021/04/27 03:16:01;;;;;;;7.83;7.07;;;;;;;;;;2099910;28;20171;-58
2021/04/27 03:17:02;;;;;;;6.93;6.20;;;;;;;;;;2097007;28;20163;-58
2021/04/27 03:18:02;;;;;;;7.10;6.40;;;;;;;;;;2105575;28;20162;-58
2021/04/27 03:19:03;;;;;;;7.17;6.57;;;;;;;;;;2106705;28;20304;-56
2021/04/27 03:20:07;;;;;;;7.90;7.20;;;;;;;;;;2107177;28;20225;-59
2021/04/27 03:21:13;;;;;;;12.97;7.00;;;;;;;;;;2099216;28;20791;-59
2021/04/27 03:22:13;;;;;;;7.30;6.60;;;;;;;;;;2095552;28;20203;-59
2021/04/27 03:23:14;;;;;;;8.33;6.50;;;;;;;;;;2103487;28;20806;-57
2021/04/27 03:24:15;;;;;;;9.23;7.03;;;;;;;;;;2108405;28;20626;-57
2021/04/27 03:25:15;;;;;;;7.60;6.90;;;;;;;;;;2106358;28;20658;-57
2021/04/27 03:26:22;;;;;;;10.67;7.07;;;;;;;;;;2099354;28;20216;-57
2021/04/27 03:27:39;;;;;;;8.20;7.43;;;;;;;;;;2098750;28;20395;-55
2021/04/27 03:28:46;;;;;;;9.73;6.73;;;;;;;;;;2107871;28;20422;-54
2021/04/27 03:29:47;;;;;;;10.10;6.83;;;;;;;;;;2098984;28;20886;-55
2021/04/27 03:30:48;;;;;;;8.27;7.20;;;;;;;;;;2091326;28;20558;-60
2021/04/27 03:31:50;;;;;;;9.67;7.23;;;;;;;;;;2100609;28;20177;-60
2021/04/27 03:32:51;;;;;;;7.90;7.13;;;;;;;;;;2096841;28;20250;-56
2021/04/27 03:33:51;;;;;;;7.07;5.93;;;;;;;;;;2100694;28;20660;-61
2021/04/27 03:34:52;;;;;;;7.77;7.03;;;;;;;;;;2104776;28;20174;-57
2021/04/27 03:35:53;;;;;;;7.83;6.40;;;;;;;;;;2100740;28;20155;-59
2021/04/27 03:36:54;;;;;;;8.67;6.83;;;;;;;;;;2109522;28;20422;-57
2021/04/27 03:37:54;;;;;;;7.57;6.80;;;;;;;;;;2109103;28;20209;-62
2021/04/27 03:38:55;;;;;;;7.97;6.97;;;;;;;;;;2099112;28;20174;-60
2021/04/27 03:39:55;;;;;;;10.63;6.67;;;;;;;;;;2098606;28;20179;-58
2021/04/27 03:40:56;;;;;;;7.80;6.93;;;;;;;;;;2108415;28;20256;-56
2021/04/27 03:41:59;;;;;;;7.90;6.97;;;;;;;;;;2108385;28;20167;-54
2021/04/27 03:42:59;;;;;;;7.70;6.67;;;;;;;;;;2103676;28;20170;-55
2021/04/27 03:44:02;;;;;;;7.63;6.80;;;;;;;;;;2106620;28;20227;-56
2021/04/27 03:45:06;;;;;;;7.47;6.90;;;;;;;;;;2092427;28;20601;-57
2021/04/27 03:46:06;;;;;;;10.63;6.73;;;;;;;;;;2100200;28;20171;-61
2021/04/27 03:47:07;;;;;;;6.70;6.20;;;;;;;;;;2109157;28;20174;-60
2021/04/27 03:48:13;;;;;;;6.60;6.00;;;;;;;;;;2107836;28;20173;-58
2021/04/27 03:49:20;;;;;;;7.20;6.50;;;;;;;;;;2105031;28;20737;-61
2021/04/27 03:50:22;;;;;;;8.50;7.70;;;;;;;;;;2098158;28;20201;-61
2021/04/27 03:51:42;;;;;;;8.30;7.00;;;;;;;;;;2106655;28;20259;-61
2021/04/27 03:52:49;;;;;;;7.20;6.50;;;;;;;;;;2101351;28;20206;-61
2021/04/27 03:53:49;;;;;;;7.57;6.77;;;;;;;;;;2099919;28;20195;-59
2021/04/27 03:54:54;;;;;;;10.13;6.70;;;;;;;;;;2091899;28;20239;-62
2021/04/27 03:55:55;;;;;;;7.77;6.13;;;;;;;;;;2090323;28;20462;-60
2021/04/27 03:56:55;;;;;;;8.67;6.80;;;;;;;;;;2098566;28;20544;-61
2021/04/27 03:57:56;;;;;;;7.13;6.43;;;;;;;;;;2102471;28;20657;-57
2021/04/27 03:58:58;;;;;;;7.20;6.67;;;;;;;;;;2106758;28;20173;-56
2021/04/27 03:59:59;;;;;;;7.20;6.50;;;;;;;;;;2097575;28;20221;-58
2021/04/27 04:00:59;;;;;;;10.17;7.03;;;;;;;;;;2096991;28;20197;-61
2021/04/27 04:02:00;;;;;;;7.10;6.50;;;;;;;;;;2098544;28;20198;-60
2021/04/27 04:03:00;;;;;;;7.37;6.37;;;;;;;;;;2097480;28;20212;-59
2021/04/27 04:04:01;;;;;;;7.57;6.60;;;;;;;;;;2096803;28;20171;-60
2021/04/27 04:05:02;;;;;;;6.43;6.03;;;;;;;;;;2098416;28;20178;-60
2021/04/27 04:06:06;;;;;;;7.70;6.90;;;;;;;;;;2098410;28;20186;-60
2021/04/27 04:07:26;;;;;;;8.77;6.53;;;;;;;;;;2091397;28;20182;-61
2021/04/27 04:08:46;;;;;;;6.90;6.30;;;;;;;;;;2098827;28;20182;-59
2021/04/27 04:09:47;;;;;;;7.73;6.60;;;;;;;;;;2105402;28;20174;-60
2021/04/27 04:10:57;;;;;;;9.97;6.13;;;;;;;;;;2104074;28;20404;-60
2021/04/27 04:11:58;;;;;;;6.73;6.20;;;;;;;;;;2104791;28;20709;-61
2021/04/27 04:12:58;;;;;;;7.67;6.97;;;;;;;;;;2105741;28;20213;-61
2021/04/27 04:13:58;;;;;;;8.43;7.07;;;;;;;;;;2107126;28;20639;-61
2021/04/27 04:15:02;;;;;;;10.77;6.23;;;;;;;;;;2106933;28;20251;-59
2021/04/27 04:16:06;;;;;;;7.43;6.73;;;;;;;;;;2107164;28;20394;-58
2021/04/27 04:17:06;;;;;;;10.60;6.60;;;;;;;;;;2095560;28;22295;-56
2021/04/27 04:18:07;;;;;;;6.63;6.03;;;;;;;;;;2097714;28;20171;-60
2021/04/27 04:19:07;;;;;;;6.67;5.97;;;;;;;;;;2106232;28;20804;-59
2021/04/27 04:20:21;;;;;;;6.50;5.90;;;;;;;;;;2106170;28;20566;-61
2021/04/27 04:21:43;;;;;;;8.77;6.23;;;;;;;;;;2097123;28;20197;-61
2021/04/27 04:22:47;;;;;;;6.73;6.10;;;;;;;;;;2101700;28;20471;-59
2021/04/27 04:23:48;;;;;;;7.27;6.57;;;;;;;;;;2105333;22;20471;-64
2021/04/27 04:24:49;;;;;;;7.47;6.40;;;;;;;;;;2088418;28;20180;-66
2021/04/27 04:25:49;;;;;;;6.57;5.53;;;;;;;;;;2089037;28;20412;-66
2021/04/27 04:26:50;;;;;;;6.40;5.90;;;;;;;;;;2087998;28;20172;-62
2021/04/27 04:28:03;;;;;;;6.10;5.60;;;;;;;;;;2089429;28;20171;-64
2021/04/27 04:29:04;;;;;;;7.97;5.53;;;;;;;;;;2094229;28;20460;-64
2021/04/27 04:30:06;;;;;;;5.90;5.30;;;;;;;;;;2096141;28;20282;-64
2021/04/27 04:31:12;;;;;;;14.83;6.80;;;;;;;;;;2096447;28;20172;-65
2021/04/27 04:32:31;;;;;;;7.90;5.60;;;;;;;;;;2097518;28;20420;-64
2021/04/27 04:33:57;;;;;;;6.23;5.63;;;;;;;;;;2089689;28;20199;-66
2021/04/27 04:35:17;;;;;;;5.70;5.20;;;;;;;;;;2096574;28;20175;-65
2021/04/27 04:36:36;;;;;;;5.60;5.10;;;;;;;;;;2095968;28;20171;-65
2021/04/27 04:37:55;;;;;;;6.57;5.03;;;;;;;;;;2098626;28;20356;-66
2021/04/27 04:39:31;;;;;;;5.37;4.73;;;;;;;;;;2095183;28;20424;-65
2021/04/27 04:40:50;;;;;;;5.97;5.23;;;;;;;;;;2094416;28;20175;-64
2021/04/27 04:42:02;;;;;;;4.97;4.43;;;;;;;;;;2093552;28;20420;-64
2021/04/27 04:43:21;;;;;;;5.00;4.53;;;;;;;;;;2094711;28;20166;-65
2021/04/27 04:44:56;;;;;;;4.97;4.50;;;;;;;;;;2095913;28;20194;-64
2021/04/27 04:46:29;;;;;;;5.10;4.70;;;;;;;;;;2072376;28;20430;-62
2021/04/27 04:47:29;;;;;;;4.90;4.50;;;;;;;;;;2090222;28;20269;-64
2021/04/27 04:49:07;;;;;;;5.53;5.03;;;;;;;;;;2090380;28;20203;-64
2021/04/27 04:50:34;;;;;;;5.17;4.70;;;;;;;;;;2072036;28;20430;-65
2021/04/27 04:52:09;;;;;;;5.57;4.60;;;;;;;;;;2097372;28;20182;-65
2021/04/27 04:53:21;;;;;;;6.27;5.20;;;;;;;;;;2094490;28;20182;-65
2021/04/27 04:54:25;;;;;;;7.67;4.60;;;;;;;;;;2091229;28;20192;-65
2021/04/27 04:55:26;;;;;;;5.50;5.10;;;;;;;;;;2089546;28;20199;-65
2021/04/27 04:56:26;;;;;;;4.70;4.30;;;;;;;;;;2077161;28;20684;-65
2021/04/27 04:57:26;;;;;;;5.00;4.60;;;;;;;;;;2096209;28;20174;-65
2021/04/27 04:58:27;;;;;;;5.03;4.17;;;;;;;;;;2096488;28;20194;-65
2021/04/27 04:59:31;;;;;;;6.10;4.83;;;;;;;;;;2094379;28;20179;-64
2021/04/27 05:00:34;;;;;;;4.70;4.30;;;;;;;;;;2103397;28;20202;-64
2021/04/27 05:01:53;;;;;;;4.57;4.10;;;;;;;;;;2095735;28;20175;-64
2021/04/27 05:03:17;;;;;;;5.13;4.40;;;;;;;;;;2096504;28;20281;-64
2021/04/27 05:04:40;;;;;;;6.10;4.90;;;;;;;;;;2088355;28;20179;-64
2021/04/27 05:06:17;;;;;;;4.70;4.30;;;;;;;;;;2072311;28;20188;-66
2021/04/27 05:07:42;;;;;;;4.60;4.20;;;;;;;;;;2071969;28;20212;-62
2021/04/27 05:09:05;;;;;;;5.90;4.13;;;;;;;;;;2090073;28;20230;-66
2021/04/27 05:10:43;;;;;;;4.67;4.27;;;;;;;;;;2083827;28;20182;-65
2021/04/27 05:12:00;;;;;;;4.87;3.90;;;;;;;;;;2095153;28;20171;-64
2021/04/27 05:13:03;;;;;;;4.20;3.90;;;;;;;;;;2089598;28;20535;-64
2021/04/27 05:14:04;;;;;;;4.50;4.03;;;;;;;;;;2096027;28;20213;-65
2021/04/27 05:15:05;;;;;;;4.80;3.93;;;;;;;;;;2094174;28;20272;-64
2021/04/27 05:16:08;;;;;;;5.47;3.67;;;;;;;;;;2097397;28;20171;-65
2021/04/27 05:17:09;;;;;;;5.10;4.33;;;;;;;;;;2097284;28;20190;-64
2021/04/27 05:18:09;;;;;;;4.97;3.90;;;;;;;;;;2089380;28;20234;-64
2021/04/27 05:19:09;;;;;;;4.57;3.97;;;;;;;;;;2091581;28;20206;-64
2021/04/27 05:20:10;;;;;;;4.10;3.80;;;;;;;;;;2098252;28;20643;-63
2021/04/27 05:21:18;;;;;;;4.13;3.73;;;;;;;;;;2097116;28;20209;-67
2021/04/27 05:22:19;;;;;;;4.57;4.17;;;;;;;;;;2076851;28;20192;-65
2021/04/27 05:23:19;;;;;;;4.27;3.87;;;;;;;;;;2084631;28;20179;-65
2021/04/27 05:24:22;;;;;;;4.77;3.77;;;;;;;;;;2088307;28;20207;-64
2021/04/27 05:25:25;;;;;;;3.73;3.47;;;;;;;;;;2080837;28;20246;-65
2021/04/27 05:26:43;;;;;;;4.20;3.80;;;;;;;;;;2091496;28;20168;-64
2021/04/27 05:27:44;;;;;;;6.20;3.33;;;;;;;;;;2089184;28;20233;-64
2021/04/27 05:28:45;;;;;;;4.17;3.77;;;;;;;;;;2089477;28;20176;-66
2021/04/27 05:29:45;;;;;;;3.67;3.33;;;;;;;;;;2099140;28;20159;-66
2021/04/27 05:30:45;;;;;;;4.30;3.60;;;;;;;;;;2092715;28;20180;-66
2021/04/27 05:31:48;;;;;;;3.90;3.53;;;;;;;;;;2094586;28;20203;-64
2021/04/27 05:32:48;;;;;;;3.67;3.47;;;;;;;;;;2094480;28;20212;-64
2021/04/27 05:33:49;;;;;;;3.80;3.50;;;;;;;;;;2094973;28;20172;-63
2021/04/27 05:34:49;;;;;;;5.90;3.37;;;;;;;;;;2095283;28;20167;-67
2021/04/27 05:35:49;;;;;;;4.93;3.97;;;;;;;;;;2096897;28;20182;-64
2021/04/27 05:36:49;;;;;;;3.57;3.27;;;;;;;;;;2090033;28;20168;-63
2021/04/27 05:37:49;;;;;;;4.50;3.70;;;;;;;;;;2090260;28;20205;-64
2021/04/27 05:38:50;;;;;;;4.93;3.77;;;;;;;;;;2090386;28;20222;-65
2021/04/27 05:39:50;;;;;;;3.97;3.67;;;;;;;;;;2106202;28;20166;-65
2021/04/27 05:40:50;;;;;;;4.13;3.80;;;;;;;;;;2105658;28;20227;-65
2021/04/27 05:41:51;;;;;;;3.90;3.50;;;;;;;;;;2098380;28;20170;-66
2021/04/27 05:42:51;;;;;;;4.00;3.60;;;;;;;;;;2098029;28;20155;-66
2021/04/27 05:43:51;;;;;;;4.47;3.53;;;;;;;;;;2097071;28;20217;-66
2021/04/27 05:44:51;;;;;;;4.23;3.73;;;;;;;;;;2097706;28;20159;-65
2021/04/27 05:45:52;;;;;;;4.03;3.60;;;;;;;;;;2090842;28;20647;-64
2021/04/27 05:46:52;;;;;;;3.60;3.20;;;;;;;;;;2105535;28;20625;-63
2021/04/27 05:47:52;;;;;;;6.20;3.37;;;;;;;;;;2104599;28;20647;-63
2021/04/27 05:48:53;;;;;;;4.47;3.10;;;;;;;;;;2096092;28;20205;-62
2021/04/27 05:49:53;;;;;;;7.33;3.20;;;;;;;;;;2097965;28;20171;-64
2021/04/27 05:50:53;;;;;;;3.30;3.10;;;;;;;;;;2101635;28;20183;-64
2021/04/27 05:51:53;;;;;;;3.43;3.23;;;;;;;;;;2104857;28;20297;-64
2021/04/27 05:52:54;;;;;;;3.57;3.27;;;;;;;;;;2098696;28;20646;-63
2021/04/27 05:53:54;;;;;;;3.50;3.20;;;;;;;;;;2097388;28;20199;-62
2021/04/27 05:54:54;;;;;;;4.20;3.13;;;;;;;;;;2099502;28;20174;-59
2021/04/27 05:55:55;;;;;;;6.07;3.73;;;;;;;;;;2101697;28;20177;-65
2021/04/27 05:56:55;;;;;;;6.67;3.47;;;;;;;;;;2096811;28;20206;-63
2021/04/27 05:57:55;;;;;;;7.00;3.57;;;;;;;;;;2109934;28;20262;-63
2021/04/27 05:58:56;;;;;;;6.17;4.33;;;;;;;;;;2103607;28;20828;-63
2021/04/27 05:59:56;;;;;;;8.47;4.70;;;;;;;;;;2098150;28;20201;-64
2021/04/27 06:00:56;;;;;;;4.07;3.60;;;;;;;;;;2095831;28;20175;-61
2021/04/27 06:01:56;;;;;;;8.13;3.90;;;;;;;;;;2097521;28;20183;-64
2021/04/27 06:02:57;;;;;;;3.70;3.33;;;;;;;;;;2095343;28;20183;-64
2021/04/27 06:03:57;;;;;;;5.80;3.63;;;;;;;;;;2094335;28;20191;-62
2021/04/27 06:04:57;;;;;;;5.40;3.33;;;;;;;;;;2091695;28;20265;-63
2021/04/27 06:05:57;;;;;;;3.50;3.20;;;;;;;;;;2086497;28;20206;-64
2021/04/27 06:06:58;;;;;;;4.93;3.77;;;;;;;;;;2077592;28;20165;-62
2021/04/27 06:07:58;;;;;;;3.50;3.20;;;;;;;;;;2088286;28;20188;-63
2021/04/27 06:08:58;;;;;;;4.10;3.20;;;;;;;;;;2092606;28;20199;-64
2021/04/27 06:09:58;;;;;;;4.13;3.73;;;;;;;;;;2095584;28;20178;-63
2021/04/27 06:10:59;;;;;;;7.07;3.20;;;;;;;;;;2095090;28;20603;-62
2021/04/27 06:11:59;;;;;;;3.23;2.83;;;;;;;;;;2095625;28;20198;-63
2021/04/27 06:12:59;;;;;;;4.03;3.20;;;;;;;;;;2093306;28;20356;-62
2021/04/27 06:13:59;;;;;;;6.27;3.33;;;;;;;;;;2095380;28;20223;-62
2021/04/27 06:15:00;;;;;;;4.57;3.17;;;;;;;;;;2105155;28;20200;-64
2021/04/27 06:16:01;;;;;;;4.67;3.67;;;;;;;;;;2102605;28;20271;-63
2021/04/27 06:17:02;;;;;;;3.73;3.43;;;;;;;;;;2093353;28;20179;-63
2021/04/27 06:18:02;;;;;;;4.50;3.47;;;;;;;;;;2093823;28;20230;-64
2021/04/27 06:19:03;;;;;;;4.00;3.60;;;;;;;;;;2101983;28;20273;-64
2021/04/27 06:20:07;;;;;;;5.20;4.67;;;;;;;;;;2108391;28;20186;-64
2021/04/27 06:21:07;;;;;;;6.53;3.30;;;;;;;;;;2099743;28;20189;-63
2021/04/27 06:22:08;;;;;;;9.53;4.30;;;;;;;;;;2092965;28;20186;-64
2021/04/27 06:23:08;;;;;;;3.50;3.27;;;;;;;;;;2096523;28;20704;-64
2021/04/27 06:24:09;;;;;;;3.43;3.00;;;;;;;;;;2092439;28;20207;-63
2021/04/27 06:25:10;;;;;;;4.83;3.47;;;;;;;;;;2103569;28;20182;-63
2021/04/27 06:26:10;;;;;;;3.57;3.00;;;;;;;;;;2103792;28;20178;-64